createdAt,value
2022-12-23T00:04:10.255Z,1.83
2022-12-23T00:09:14.850Z,1.80
2022-12-23T00:14:35.474Z,1.90
2022-12-23T00:19:38.660Z,2.07
2022-12-23T00:24:43.305Z,1.90
2022-12-23T00:29:46.491Z,2.00
2022-12-23T00:34:49.717Z,1.40
2022-12-23T00:40:20.121Z,1.40
2022-12-23T00:45:23.716Z,1.20
2022-12-23T00:50:26.852Z,1.40
2022-12-23T00:55:31.703Z,1.50
2022-12-23T01:00:52.285Z,1.40
2022-12-23T01:05:59.711Z,1.30
2022-12-23T01:11:07.060Z,1.40
2022-12-23T01:16:17.086Z,1.57
2022-12-23T01:21:20.959Z,1.30
2022-12-23T01:26:25.526Z,1.10
2022-12-23T01:31:29.702Z,1.27
2022-12-23T01:36:32.883Z,1.10
2022-12-23T01:41:54.660Z,1.10
2022-12-23T01:46:57.860Z,1.20
2022-12-23T01:52:01.143Z,0.93
2022-12-23T01:57:05.947Z,0.73
2022-12-23T02:02:27.158Z,1.00
2022-12-23T02:08:03.543Z,0.90
2022-12-23T02:13:13.050Z,1.10
2022-12-23T02:18:28.285Z,0.83
2022-12-23T02:23:58.582Z,0.70
2022-12-23T02:29:27.063Z,0.70
2022-12-23T02:34:37.653Z,0.90
2022-12-23T02:39:45.680Z,0.90
2022-12-23T02:44:57.695Z,0.90
2022-12-23T02:50:07.235Z,0.80
2022-12-23T02:55:13.805Z,0.70
2022-12-23T03:00:17.887Z,0.80
2022-12-23T03:05:32.415Z,0.80
2022-12-23T03:10:45.519Z,0.80
2022-12-23T03:15:58.403Z,0.80
2022-12-23T03:21:08.049Z,0.70
2022-12-23T03:26:15.660Z,0.80
2022-12-23T03:31:24.737Z,0.80
2022-12-23T03:36:34.553Z,1.17
2022-12-23T03:41:42.690Z,0.70
2022-12-23T03:46:49.682Z,0.90
2022-12-23T03:51:59.161Z,0.80
2022-12-23T03:57:06.620Z,0.80
2022-12-23T04:02:16.038Z,0.73
2022-12-23T04:07:24.897Z,0.67
2022-12-23T04:12:28.861Z,0.60
2022-12-23T04:17:32.017Z,0.80
2022-12-23T04:22:36.502Z,0.80
2022-12-23T04:27:39.612Z,1.30
2022-12-23T04:32:43.551Z,1.30
2022-12-23T04:37:48.176Z,1.97
2022-12-23T04:42:51.335Z,1.40
2022-12-23T04:47:54.586Z,0.90
2022-12-23T04:52:59.140Z,0.60
2022-12-23T04:58:02.403Z,0.70
2022-12-23T05:03:06.209Z,0.70
2022-12-23T05:08:11.295Z,0.80
2022-12-23T05:13:14.388Z,0.80
2022-12-23T05:18:17.960Z,0.70
2022-12-23T05:23:22.558Z,0.80
2022-12-23T05:28:25.713Z,0.70
2022-12-23T05:33:29.323Z,0.77
2022-12-23T05:38:34.349Z,0.80
2022-12-23T05:43:37.499Z,0.60
2022-12-23T05:48:40.611Z,1.00
2022-12-23T05:53:45.062Z,0.70
2022-12-23T05:58:48.222Z,0.77
2022-12-23T06:03:51.434Z,1.00
2022-12-23T06:08:59.761Z,1.07
2022-12-23T06:14:03.789Z,0.70
2022-12-23T06:19:07.014Z,1.23
2022-12-23T06:24:11.607Z,1.50
2022-12-23T06:29:14.927Z,1.10
2022-12-23T06:34:18.257Z,1.17
2022-12-23T06:39:22.702Z,1.40
2022-12-23T06:44:25.867Z,1.20
2022-12-23T06:49:29.176Z,1.63
2022-12-23T06:54:33.659Z,1.23
2022-12-23T06:59:36.778Z,0.80
2022-12-23T07:04:40.032Z,1.20
2022-12-23T07:09:44.518Z,1.00
2022-12-23T07:14:47.611Z,1.00
2022-12-23T07:19:50.700Z,1.10
2022-12-23T07:24:55.142Z,1.80
2022-12-23T07:29:58.220Z,2.10
2022-12-23T07:35:01.398Z,1.80
2022-12-23T07:40:08.760Z,1.30
2022-12-23T07:45:12.772Z,1.10
2022-12-23T07:50:15.971Z,0.93
2022-12-23T07:55:20.675Z,1.30
2022-12-23T08:00:24.115Z,1.00
2022-12-23T08:05:27.257Z,1.80
2022-12-23T08:10:31.779Z,1.20
2022-12-23T08:15:34.872Z,1.10
2022-12-23T08:20:38.023Z,1.17
2022-12-23T08:25:42.458Z,1.20
2022-12-23T08:30:45.661Z,1.10
2022-12-23T08:35:48.825Z,0.90
2022-12-23T08:40:53.311Z,0.90
2022-12-23T08:45:56.445Z,1.00
2022-12-23T08:51:05.153Z,2.57
2022-12-23T08:56:11.487Z,1.30
2022-12-23T09:01:16.743Z,1.40
2022-12-23T09:06:28.638Z,1.00
2022-12-23T09:11:35.732Z,0.73
2022-12-23T09:16:39.338Z,0.87
2022-12-23T09:21:42.413Z,1.17
2022-12-23T09:26:46.862Z,1.23
2022-12-23T09:31:50.044Z,1.17
2022-12-23T09:36:55.490Z,1.00
2022-12-23T09:42:07.478Z,1.00
2022-12-23T09:47:17.054Z,2.03
2022-12-23T09:52:26.284Z,1.60
2022-12-23T09:57:37.391Z,1.30
2022-12-23T10:02:55.300Z,1.30
2022-12-23T10:08:04.293Z,2.07
2022-12-23T10:13:14.079Z,1.00
2022-12-23T10:18:21.944Z,1.70
2022-12-23T10:23:31.225Z,2.00
2022-12-23T10:28:35.919Z,1.40
2022-12-23T10:33:47.128Z,1.10
2022-12-23T10:39:00.198Z,1.20
2022-12-23T10:44:31.742Z,1.40
2022-12-23T10:49:44.308Z,1.20
2022-12-23T10:54:49.360Z,1.50
2022-12-23T10:59:53.997Z,1.10
2022-12-23T11:04:57.120Z,1.10
2022-12-23T11:10:02.435Z,1.00
2022-12-23T11:15:25.219Z,1.00
2022-12-23T11:20:29.860Z,1.10
2022-12-23T11:25:36.952Z,1.00
2022-12-23T11:30:55.395Z,1.00
2022-12-23T11:36:05.431Z,0.90
2022-12-23T11:41:09.948Z,0.80
2022-12-23T11:46:25.078Z,0.73
2022-12-23T11:51:28.392Z,1.90
2022-12-23T11:56:37.364Z,1.70
2022-12-23T12:01:49.154Z,1.00
2022-12-23T12:06:56.552Z,1.20
2022-12-23T12:12:05.994Z,3.07
2022-12-23T12:17:18.229Z,1.80
2022-12-23T12:22:31.573Z,1.50
2022-12-23T12:27:39.514Z,1.70
2022-12-23T12:32:51.256Z,1.40
2022-12-23T12:37:59.399Z,1.40
2022-12-23T12:43:08.366Z,2.20
2022-12-23T12:48:35.066Z,2.53
2022-12-23T12:53:40.720Z,3.23
2022-12-23T12:58:46.779Z,1.90
2022-12-23T13:04:17.614Z,3.87
2022-12-23T13:09:31.696Z,2.73
2022-12-23T13:14:46.564Z,2.50
2022-12-23T13:19:58.983Z,3.30
2022-12-23T13:25:06.725Z,5.20
2022-12-23T13:30:14.774Z,4.37
2022-12-23T13:35:33.764Z,5.57
2022-12-23T13:40:44.607Z,2.50
2022-12-23T13:45:49.761Z,3.10
2022-12-23T13:51:01.036Z,2.00
2022-12-23T13:56:13.430Z,1.90
2022-12-23T14:01:34.597Z,1.40
2022-12-23T14:06:46.295Z,1.20
2022-12-23T14:11:51.038Z,1.10
2022-12-23T14:17:08.414Z,1.10
2022-12-23T14:22:29.451Z,0.93
2022-12-23T14:27:47.780Z,0.90
2022-12-23T14:32:53.573Z,1.00
2022-12-23T14:38:12.246Z,0.90
2022-12-23T14:43:27.738Z,0.90
2022-12-23T14:49:37.469Z,1.10
2022-12-23T14:54:46.601Z,1.47
2022-12-23T15:00:04.879Z,1.43
2022-12-23T15:05:08.816Z,1.17
2022-12-23T15:10:19.800Z,1.80
2022-12-23T15:15:26.039Z,1.97
2022-12-23T15:20:29.573Z,1.30
2022-12-23T15:25:36.276Z,2.30
2022-12-23T15:30:53.155Z,2.53
2022-12-23T15:35:56.540Z,2.73
2022-12-23T15:41:03.176Z,3.43
2022-12-23T15:46:09.753Z,3.27
2022-12-23T15:51:25.833Z,1.10
2022-12-23T15:56:42.906Z,1.20
2022-12-23T16:01:46.206Z,1.00
2022-12-23T16:06:51.681Z,1.20
2022-12-23T16:11:59.092Z,0.90
2022-12-23T16:17:13.415Z,0.83
2022-12-23T16:22:25.474Z,0.87
2022-12-23T16:27:36.524Z,0.90
2022-12-23T16:32:50.941Z,1.10
2022-12-23T16:37:56.032Z,1.00
2022-12-23T16:43:00.540Z,1.10
2022-12-23T16:48:11.004Z,1.10
2022-12-23T16:53:14.679Z,1.00
2022-12-23T16:58:19.189Z,1.30
2022-12-23T17:03:22.479Z,1.60
2022-12-23T17:08:25.589Z,1.10
2022-12-23T17:13:30.107Z,1.00
2022-12-23T17:18:33.255Z,1.20
2022-12-23T17:23:36.719Z,1.10
2022-12-23T17:28:41.764Z,0.80
2022-12-23T17:33:44.896Z,0.90
2022-12-23T17:38:48.038Z,1.10
2022-12-23T17:43:52.780Z,1.40
2022-12-23T17:48:57.222Z,1.20
2022-12-23T17:54:00.324Z,1.17
2022-12-23T17:59:04.947Z,1.00
2022-12-23T18:04:08.299Z,0.90
2022-12-23T18:09:11.564Z,0.90
2022-12-23T18:14:18.736Z,1.10
2022-12-23T18:19:22.701Z,1.10
2022-12-23T18:24:25.894Z,0.90
2022-12-23T18:29:30.428Z,0.80
2022-12-23T18:34:33.520Z,1.10
2022-12-23T18:39:36.621Z,1.10
2022-12-23T18:44:41.427Z,0.97
2022-12-23T18:49:44.622Z,0.90
2022-12-23T18:54:47.709Z,0.90
2022-12-23T18:59:52.142Z,1.63
2022-12-23T19:04:55.729Z,1.00
2022-12-23T19:09:59.013Z,1.20
2022-12-23T19:15:03.594Z,1.00
2022-12-23T19:20:08.363Z,1.00
2022-12-23T19:25:14.850Z,0.93
2022-12-23T19:30:19.594Z,1.03
2022-12-23T19:35:22.754Z,1.40
2022-12-23T19:40:25.977Z,0.80
2022-12-23T19:45:31.743Z,1.20
2022-12-23T19:50:34.898Z,0.90
2022-12-23T19:55:38.059Z,0.93
2022-12-23T20:00:42.786Z,1.10
2022-12-23T20:05:48.998Z,0.80
2022-12-23T20:10:52.256Z,0.90
2022-12-23T20:15:56.785Z,1.40
2022-12-23T20:21:01.109Z,1.90
2022-12-23T20:26:04.953Z,1.33
2022-12-23T20:31:17.191Z,1.10
2022-12-23T20:36:22.450Z,1.00
2022-12-23T20:41:27.174Z,0.80
2022-12-23T20:46:31.775Z,0.97
2022-12-23T20:51:34.936Z,0.80
2022-12-23T20:56:38.065Z,1.00
2022-12-23T21:01:43.005Z,0.80
2022-12-23T21:06:46.499Z,0.73
2022-12-23T21:11:50.197Z,0.57
2022-12-23T21:16:55.540Z,0.63
2022-12-23T21:21:58.838Z,0.80
2022-12-23T21:27:01.948Z,0.70
2022-12-23T21:32:06.531Z,0.73
2022-12-23T21:37:09.659Z,1.20
2022-12-23T21:42:12.784Z,1.20
2022-12-23T21:47:17.379Z,1.30
2022-12-23T21:52:20.785Z,1.07
2022-12-23T21:57:24.046Z,2.00
2022-12-23T22:02:28.559Z,2.30
2022-12-23T22:07:31.818Z,1.90
2022-12-23T22:12:35.038Z,1.37
2022-12-23T22:17:39.606Z,1.10
2022-12-23T22:22:42.721Z,0.80
2022-12-23T22:27:46.341Z,0.70
2022-12-23T22:32:50.944Z,0.73
2022-12-23T22:37:54.048Z,0.70
2022-12-23T22:42:57.150Z,0.60
2022-12-23T22:48:01.631Z,0.80
2022-12-23T22:53:05.191Z,0.70
2022-12-23T22:58:08.348Z,0.70
2022-12-23T23:03:12.881Z,0.70
2022-12-23T23:08:15.953Z,0.60
2022-12-23T23:13:19.050Z,0.70
2022-12-23T23:18:23.896Z,0.73
2022-12-23T23:23:27.083Z,0.93
2022-12-23T23:28:30.304Z,0.70
2022-12-23T23:33:34.783Z,0.80
2022-12-23T23:38:37.965Z,0.80
2022-12-23T23:43:41.115Z,0.70
2022-12-23T23:48:45.588Z,0.80
2022-12-23T23:53:48.720Z,0.80
2022-12-23T23:58:51.834Z,0.87
